Time;durP1;ratioP1;P1;durP2;ratioP2;P2;SDS_P1;SDS_P2;PMS_P1;PMS_P2;Temp;Humidity;BMP_temperature;BMP_pressure;BME280_temperature;BME280_humidity;BME280_pressure;Samples;Min_cycle;Max_cycle;Signal;HPM_P1;HPM_P2
2022/05/21 00:00:24;;;;;;;11.00;5.68;;;26.50;54.00;;;;;;5065837;28;20066;-64
2022/05/21 00:02:50;;;;;;;10.25;5.32;;;26.50;54.00;;;;;;5069618;28;20365;-69
2022/05/21 00:05:37;;;;;;;11.27;5.07;;;26.40;54.10;;;;;;5071579;28;20034;-65
2022/05/21 00:08:04;;;;;;;8.32;5.15;;;26.40;54.70;;;;;;5047241;28;20394;-69
2022/05/21 00:10:31;;;;;;;10.52;6.18;;;26.30;55.50;;;;;;5067808;28;20074;-66
2022/05/21 00:12:58;;;;;;;17.42;5.90;;;26.30;55.70;;;;;;5067887;28;20111;-70
2022/05/21 00:15:26;;;;;;;11.70;6.40;;;26.20;56.80;;;;;;5068484;28;20017;-65
2022/05/21 00:17:52;;;;;;;17.50;6.95;;;26.10;57.80;;;;;;5066309;28;20135;-71
2022/05/21 00:23:33;;;;;;;14.07;6.55;;;25.80;60.20;;;;;;5071618;28;20101;-70
2022/05/21 00:26:02;;;;;;;9.70;6.05;;;25.60;60.40;;;;;;5041922;28;20067;-71
2022/05/21 00:28:28;;;;;;;15.27;6.78;;;25.50;60.60;;;;;;5064808;28;20036;-70
2022/05/21 00:30:55;;;;;;;13.80;5.75;;;25.50;61.30;;;;;;5050530;28;20036;-70
2022/05/21 00:33:22;;;;;;;12.18;6.00;;;25.40;61.20;;;;;;5068158;28;20032;-70
2022/05/21 00:35:48;;;;;;;10.50;5.93;;;25.30;61.50;;;;;;5061828;28;20019;-67
2022/05/21 00:38:14;;;;;;;10.63;5.35;;;25.20;61.60;;;;;;5059697;28;20024;-70
2022/05/21 00:40:41;;;;;;;14.82;5.50;;;25.10;62.00;;;;;;5048518;28;20036;-71
2022/05/21 00:43:27;;;;;;;9.85;5.10;;;25.00;62.40;;;;;;5066550;28;20032;-70
2022/05/21 00:45:53;;;;;;;14.40;5.03;;;24.90;62.40;;;;;;5070673;28;20036;-71
2022/05/21 00:48:18;;;;;;;11.70;5.47;;;24.80;63.00;;;;;;5071625;28;20016;-71
2022/05/21 00:50:44;;;;;;;10.52;5.65;;;24.70;63.50;;;;;;5066758;28;20217;-70
2022/05/21 00:53:11;;;;;;;13.40;5.90;;;24.70;63.90;;;;;;5062847;28;20025;-71
2022/05/21 00:55:37;;;;;;;10.57;5.80;;;24.70;64.00;;;;;;5063254;28;20024;-71
2022/05/21 01:00:54;;;;;;;14.32;5.60;;;24.50;64.80;;;;;;5059984;28;20109;-72
2022/05/21 01:03:20;;;;;;;14.65;6.22;;;24.50;64.70;;;;;;5061070;28;20098;-71
2022/05/21 01:05:47;;;;;;;16.98;6.05;;;24.60;65.20;;;;;;5061535;28;20387;-72
2022/05/21 01:08:13;;;;;;;13.82;7.53;;;24.50;65.40;;;;;;5055944;28;20027;-69
2022/05/21 01:10:45;;;;;;;14.68;6.80;;;24.50;65.90;;;;;;5068023;28;20068;-65
2022/05/21 01:13:21;;;;;;;13.93;6.63;;;24.40;65.90;;;;;;5053724;28;20052;-71
2022/05/21 01:15:49;;;;;;;13.55;6.32;;;24.50;66.40;;;;;;5063842;28;20016;-70
2022/05/21 01:18:15;;;;;;;14.27;5.75;;;24.50;66.60;;;;;;5063499;28;20025;-68
2022/05/21 01:20:46;;;;;;;12.05;5.28;;;24.50;66.60;;;;;;5066056;28;20019;-72
2022/05/21 01:23:13;;;;;;;12.77;5.63;;;24.40;66.80;;;;;;5063748;28;20036;-71
2022/05/21 01:25:40;;;;;;;8.80;5.65;;;24.30;66.80;;;;;;5070483;28;20117;-70
2022/05/21 01:28:14;;;;;;;12.20;5.60;;;24.30;67.10;;;;;;5054486;28;20029;-71
2022/05/21 01:30:41;;;;;;;11.77;6.05;;;24.30;66.80;;;;;;5064297;28;20063;-70
2022/05/21 01:33:10;;;;;;;12.05;5.70;;;24.30;67.50;;;;;;5066273;28;20037;-69
2022/05/21 01:35:37;;;;;;;24.45;5.90;;;24.40;67.30;;;;;;5069556;28;20028;-70
2022/05/21 01:38:04;;;;;;;11.95;6.38;;;24.30;67.40;;;;;;5071054;28;20020;-71
2022/05/21 01:40:30;;;;;;;10.82;5.57;;;24.30;68.20;;;;;;5066437;28;20056;-63
2022/05/21 01:45:40;;;;;;;18.23;6.30;;;24.30;68.30;;;;;;5061493;28;20043;-70
2022/05/21 01:48:06;;;;;;;13.57;6.07;;;24.20;68.30;;;;;;5071222;28;20028;-71
2022/05/21 01:50:33;;;;;;;11.82;6.03;;;24.20;68.30;;;;;;5063028;28;20103;-69
2022/05/21 01:52:59;;;;;;;12.23;6.43;;;24.20;68.30;;;;;;5069327;28;20028;-71
2022/05/21 01:55:24;;;;;;;15.68;7.00;;;24.20;68.80;;;;;;5061745;28;20021;-69
2022/05/21 01:57:50;;;;;;;12.27;6.45;;;24.20;68.60;;;;;;5067759;28;20067;-71
2022/05/21 02:00:17;;;;;;;12.98;6.25;;;24.20;68.90;;;;;;5068094;28;20039;-73
2022/05/21 02:02:43;;;;;;;14.10;7.22;;;24.10;69.60;;;;;;5066807;28;20162;-70
2022/05/21 02:05:09;;;;;;;12.50;6.40;;;24.00;69.90;;;;;;5065749;28;20111;-71
2022/05/21 02:07:35;;;;;;;11.43;6.30;;;24.00;70.00;;;;;;5066132;28;20036;-69
2022/05/21 02:10:02;;;;;;;13.20;6.35;;;24.00;69.80;;;;;;5069855;28;20028;-71
2022/05/21 02:12:28;;;;;;;12.98;7.03;;;24.00;70.00;;;;;;5068713;28;20051;-64
2022/05/21 02:15:13;;;;;;;17.80;6.97;;;24.10;70.00;;;;;;5066202;28;20012;-71
2022/05/21 02:17:39;;;;;;;10.55;6.72;;;24.10;70.00;;;;;;5054865;28;20078;-72
2022/05/21 02:20:05;;;;;;;12.70;6.60;;;24.20;69.90;;;;;;5045736;28;20025;-73
2022/05/21 02:22:31;;;;;;;15.60;6.32;;;24.10;69.90;;;;;;5061073;28;20067;-63
2022/05/21 02:24:56;;;;;;;13.30;6.32;;;24.00;69.90;;;;;;5062524;28;20059;-69
2022/05/21 02:27:22;;;;;;;9.35;6.20;;;23.80;70.40;;;;;;5073494;28;20516;-70
2022/05/21 02:29:48;;;;;;;10.80;6.25;;;23.70;70.60;;;;;;5069163;28;20058;-71
2022/05/21 02:32:14;;;;;;;14.05;6.18;;;23.60;71.00;;;;;;5059902;28;20032;-70
2022/05/21 02:34:42;;;;;;;15.32;6.80;;;23.60;71.20;;;;;;5053534;28;20032;-70
2022/05/21 02:39:53;;;;;;;13.80;6.88;;;23.80;71.20;;;;;;5065214;28;20040;-71
2022/05/21 02:45:04;;;;;;;11.43;5.55;;;23.80;71.40;;;;;;5085092;28;20508;-70
2022/05/21 02:47:30;;;;;;;9.02;4.85;;;23.80;71.10;;;;;;5090519;28;20032;-69
2022/05/21 02:49:56;;;;;;;11.90;5.47;;;23.90;70.40;;;;;;5091738;28;20032;-70
2022/05/21 02:52:22;;;;;;;15.30;5.95;;;23.90;70.20;;;;;;5085448;28;20111;-70
2022/05/21 02:54:48;;;;;;;12.40;6.63;;;24.00;70.40;;;;;;5084674;28;20021;-71
2022/05/21 02:57:13;;;;;;;12.30;6.55;;;24.00;70.70;;;;;;5084044;28;20020;-69
2022/05/21 02:59:39;;;;;;;10.80;5.13;;;23.90;70.80;;;;;;5083108;28;20025;-71
2022/05/21 03:02:06;;;;;;;12.57;5.70;;;23.90;70.90;;;;;;5084164;28;20145;-69
2022/05/21 03:04:32;;;;;;;10.48;5.10;;;23.90;71.10;;;;;;5073265;28;20039;-64
2022/05/21 03:06:58;;;;;;;11.40;4.75;;;23.70;70.00;;;;;;5090941;28;20032;-68
2022/05/21 03:12:10;;;;;;;9.80;4.72;;;23.40;70.60;;;;;;5085143;28;20106;-70
2022/05/21 03:14:36;;;;;;;13.63;5.63;;;23.40;71.00;;;;;;5082191;28;20038;-64
2022/05/21 03:17:02;;;;;;;12.57;5.40;;;23.30;72.20;;;;;;5091822;28;20020;-69
2022/05/21 03:19:30;;;;;;;8.40;4.68;;;23.30;72.60;;;;;;5090999;28;20026;-70
2022/05/21 03:21:56;;;;;;;8.27;3.72;;;23.20;72.20;;;;;;5083441;28;20027;-67
2022/05/21 03:24:22;;;;;;;7.20;3.55;;;23.20;71.10;;;;;;5087354;28;20055;-73
2022/05/21 03:26:48;;;;;;;10.45;4.35;;;23.20;70.30;;;;;;5086509;28;20047;-74
2022/05/21 03:29:13;;;;;;;8.63;4.10;;;23.20;70.90;;;;;;5094105;28;20368;-73
2022/05/21 03:31:39;;;;;;;9.85;4.13;;;23.10;70.80;;;;;;5090167;28;20557;-73
2022/05/21 03:34:05;;;;;;;6.32;3.83;;;23.10;70.90;;;;;;5073018;28;20024;-73
2022/05/21 03:36:32;;;;;;;8.88;3.85;;;23.00;71.20;;;;;;5087760;28;20020;-70
2022/05/21 03:38:58;;;;;;;10.05;4.38;;;23.00;71.30;;;;;;5088949;28;20359;-73
2022/05/21 03:41:26;;;;;;;8.60;4.30;;;23.00;71.90;;;;;;5086100;28;20055;-72
2022/05/21 03:43:52;;;;;;;7.70;4.78;;;23.00;72.30;;;;;;5083538;28;20102;-73
2022/05/21 03:46:18;;;;;;;10.45;4.55;;;22.90;72.90;;;;;;5087933;28;20024;-71
2022/05/21 03:48:44;;;;;;;12.68;5.55;;;22.90;72.80;;;;;;5084334;28;20020;-71
2022/05/21 03:51:10;;;;;;;9.43;4.88;;;22.90;73.20;;;;;;5079736;28;20112;-72
2022/05/21 03:53:36;;;;;;;9.75;4.82;;;22.80;73.50;;;;;;5085909;28;20058;-63
2022/05/21 03:56:03;;;;;;;10.00;4.80;;;22.80;73.80;;;;;;5082651;28;20032;-70
2022/05/21 03:58:28;;;;;;;9.30;4.47;;;22.70;74.20;;;;;;5083921;28;20028;-71
2022/05/21 04:00:54;;;;;;;5.65;3.45;;;22.70;73.70;;;;;;5085269;28;20093;-73
2022/05/21 04:03:20;;;;;;;5.65;3.75;;;22.60;73.20;;;;;;5085966;28;20107;-73
2022/05/21 04:05:45;;;;;;;7.28;3.88;;;22.60;73.10;;;;;;5081568;28;20506;-73
2022/05/21 04:08:11;;;;;;;6.95;3.70;;;22.60;73.30;;;;;;5063408;28;20032;-73
2022/05/21 04:10:37;;;;;;;9.95;4.65;;;22.60;73.50;;;;;;5080995;28;20056;-64
2022/05/21 04:13:03;;;;;;;7.40;4.00;;;22.60;73.30;;;;;;5065152;28;20382;-69
2022/05/21 04:15:28;;;;;;;6.90;4.50;;;22.60;73.30;;;;;;5079768;28;20468;-71
2022/05/21 04:17:54;;;;;;;9.52;4.80;;;22.70;73.20;;;;;;5081392;28;20453;-73
2022/05/21 04:20:24;;;;;;;9.07;4.70;;;22.60;74.40;;;;;;5077906;28;20034;-72
2022/05/21 04:22:51;;;;;;;7.97;4.05;;;22.70;73.50;;;;;;5081492;28;20028;-73
2022/05/21 04:25:17;;;;;;;9.48;4.55;;;22.70;73.30;;;;;;5063427;28;20043;-72
2022/05/21 04:27:43;;;;;;;6.57;4.30;;;22.70;73.40;;;;;;5080444;28;20028;-71
2022/05/21 04:30:14;;;;;;;8.43;4.25;;;22.70;73.30;;;;;;5081514;28;20115;-73
2022/05/21 04:32:40;;;;;;;8.05;4.22;;;22.70;73.30;;;;;;5062512;28;20096;-69
2022/05/21 04:35:07;;;;;;;8.75;4.35;;;22.80;73.00;;;;;;5081749;28;20028;-71
2022/05/21 04:37:36;;;;;;;10.30;4.20;;;22.80;72.50;;;;;;5082810;28;20107;-72
2022/05/21 04:40:03;;;;;;;9.63;4.60;;;22.90;72.10;;;;;;5061946;28;20032;-71
2022/05/21 04:42:29;;;;;;;7.85;4.00;;;22.80;71.90;;;;;;5082275;28;20103;-72
2022/05/21 04:44:54;;;;;;;12.27;4.35;;;22.90;71.90;;;;;;5077992;28;20170;-73
2022/05/21 04:47:20;;;;;;;11.35;4.55;;;22.90;71.50;;;;;;5083831;28;20056;-70
2022/05/21 04:49:46;;;;;;;8.50;4.07;;;23.00;71.60;;;;;;5074300;28;20028;-71
2022/05/21 04:52:12;;;;;;;9.02;4.07;;;23.00;71.40;;;;;;5077384;28;20078;-74
2022/05/21 04:54:38;;;;;;;8.80;4.05;;;23.10;71.10;;;;;;5081729;28;20034;-65
2022/05/21 04:57:05;;;;;;;8.20;4.70;;;23.10;70.70;;;;;;5084148;28;20024;-73
2022/05/21 04:59:30;;;;;;;9.25;4.07;;;23.10;70.30;;;;;;5086409;28;20060;-68
2022/05/21 05:01:56;;;;;;;10.77;4.55;;;23.20;70.10;;;;;;5075144;28;20456;-72
2022/05/21 05:04:22;;;;;;;11.75;4.35;;;23.30;69.90;;;;;;5080448;28;20032;-68
2022/05/21 05:06:48;;;;;;;10.98;4.30;;;23.20;69.80;;;;;;5080123;28;20062;-73
2022/05/21 05:09:15;;;;;;;8.65;4.55;;;23.30;69.70;;;;;;5084394;28;20366;-72
2022/05/21 05:11:42;;;;;;;8.93;4.60;;;23.30;69.70;;;;;;5084555;28;20024;-71
2022/05/21 05:14:08;;;;;;;9.55;4.90;;;23.20;69.60;;;;;;5089928;28;20031;-72
2022/05/21 05:16:34;;;;;;;12.65;5.10;;;23.30;69.50;;;;;;5085272;28;20040;-72
2022/05/21 05:18:59;;;;;;;10.65;5.10;;;23.30;69.30;;;;;;5068395;28;20480;-72
2022/05/21 05:21:25;;;;;;;11.23;5.30;;;23.30;69.60;;;;;;5086242;28;20024;-69
2022/05/21 05:23:51;;;;;;;9.32;5.18;;;23.20;69.50;;;;;;5086716;28;20077;-72
2022/05/21 05:26:17;;;;;;;10.43;5.35;;;23.30;69.40;;;;;;5084580;28;20024;-73
2022/05/21 05:28:45;;;;;;;7.60;4.90;;;23.40;69.40;;;;;;5081655;28;20030;-71
2022/05/21 05:31:11;;;;;;;11.43;5.22;;;23.40;69.80;;;;;;5086029;28;20123;-72
2022/05/21 05:33:39;;;;;;;8.18;5.13;;;23.50;68.90;;;;;;5076661;28;20104;-66
2022/05/21 05:36:06;;;;;;;10.45;5.10;;;23.50;68.80;;;;;;5082229;28;20024;-72
2022/05/21 05:38:32;;;;;;;9.13;4.85;;;23.60;68.60;;;;;;5088453;28;20023;-73
2022/05/21 05:40:58;;;;;;;11.95;4.90;;;23.70;68.40;;;;;;5087476;28;20016;-67
2022/05/21 05:43:25;;;;;;;10.18;5.18;;;23.80;67.90;;;;;;5085732;28;20089;-73
2022/05/21 05:45:58;;;;;;;6.65;4.80;;;24.00;67.80;;;;;;5081086;28;20063;-75
2022/05/21 05:48:25;;;;;;;10.10;5.78;;;24.00;67.30;;;;;;5077948;28;20044;-74
2022/05/21 05:50:52;;;;;;;13.45;6.22;;;24.20;67.00;;;;;;5080703;28;20039;-75
2022/05/21 05:53:18;;;;;;;15.98;5.57;;;24.20;66.40;;;;;;5059847;28;20067;-72
2022/05/21 05:55:44;;;;;;;10.10;5.03;;;24.30;66.10;;;;;;5077899;28;20036;-72
2022/05/21 06:01:13;;;;;;;9.20;5.70;;;24.70;65.10;;;;;;5087756;28;20035;-72
2022/05/21 06:03:42;;;;;;;10.05;5.63;;;24.80;64.40;;;;;;5075673;28;20036;-66
2022/05/21 06:06:07;;;;;;;10.50;5.35;;;24.80;64.50;;;;;;5093920;28;20024;-73
2022/05/21 06:11:18;;;;;;;11.95;5.40;;;25.10;63.80;;;;;;5090954;28;20097;-73
2022/05/21 06:13:44;;;;;;;10.77;5.63;;;25.10;63.30;;;;;;5090759;28;20489;-73
2022/05/21 06:16:10;;;;;;;9.30;5.25;;;25.00;63.20;;;;;;5092128;28;20046;-72
2022/05/21 06:18:36;;;;;;;10.98;5.90;;;25.10;63.30;;;;;;5062341;28;20028;-75
2022/05/21 06:21:04;;;;;;;10.68;5.53;;;25.20;62.90;;;;;;5089343;28;20004;-76
2022/05/21 06:23:33;;;;;;;13.18;5.40;;;25.20;63.50;;;;;;5050487;28;20073;-69
2022/05/21 06:26:00;;;;;;;15.15;5.82;;;25.30;62.70;;;;;;5089968;28;20013;-73
2022/05/21 06:28:26;;;;;;;9.90;5.47;;;25.30;62.50;;;;;;5079936;28;20185;-77
2022/05/21 06:30:52;;;;;;;10.70;5.50;;;25.20;62.60;;;;;;5071831;28;20118;-73
2022/05/21 06:33:19;;;;;;;12.20;5.70;;;25.30;62.60;;;;;;5073245;28;20537;-77
2022/05/21 06:35:46;;;;;;;9.25;5.20;;;25.30;62.20;;;;;;5088364;28;20032;-69
2022/05/21 06:38:12;;;;;;;9.07;5.38;;;25.50;61.90;;;;;;5091105;28;20031;-71
2022/05/21 06:40:38;;;;;;;11.13;5.53;;;25.60;61.40;;;;;;5077186;28;20392;-76
2022/05/21 06:43:04;;;;;;;12.90;5.25;;;25.60;61.30;;;;;;5092352;28;20024;-67
2022/05/21 06:45:31;;;;;;;10.43;5.10;;;25.80;60.70;;;;;;5092938;28;20066;-74
2022/05/21 06:48:15;;;;;;;10.90;4.80;;;26.00;60.30;;;;;;5085058;28;20028;-73
2022/05/21 06:50:41;;;;;;;20.85;5.45;;;26.30;59.40;;;;;;5071993;28;20046;-75
2022/05/21 06:53:07;;;;;;;11.65;5.25;;;26.70;58.80;;;;;;5089326;28;20032;-69
2022/05/21 06:55:33;;;;;;;12.45;4.82;;;27.00;57.60;;;;;;5065345;28;20024;-74
2022/05/21 06:57:58;;;;;;;8.35;4.90;;;27.30;56.60;;;;;;5066838;28;20025;-76
2022/05/21 07:00:25;;;;;;;12.43;5.28;;;27.70;55.70;;;;;;5083612;28;20063;-70
2022/05/21 07:02:53;;;;;;;9.98;5.07;;;28.30;54.30;;;;;;5088628;28;20082;-74
2022/05/21 07:08:13;;;;;;;12.90;4.72;;;28.60;52.60;;;;;;5089632;28;20049;-68
2022/05/21 07:10:39;;;;;;;9.93;4.43;;;28.60;52.40;;;;;;5086221;28;20079;-68
2022/05/21 07:13:05;;;;;;;10.38;4.47;;;29.10;51.50;;;;;;5079031;28;20185;-67
2022/05/21 07:15:30;;;;;;;10.93;5.00;;;29.60;50.50;;;;;;5067144;28;20442;-71
2022/05/21 07:18:01;;;;;;;8.18;4.38;;;30.70;47.80;;;;;;5087068;28;20039;-70
2022/05/21 07:20:28;;;;;;;8.52;4.57;;;31.40;45.50;;;;;;5088101;28;20029;-75
2022/05/21 07:22:54;;;;;;;7.57;4.65;;;31.60;45.30;;;;;;5086041;28;20036;-74
2022/05/21 07:25:23;;;;;;;15.95;4.38;;;32.00;43.90;;;;;;5062827;28;20327;-70
2022/05/21 07:27:50;;;;;;;9.90;4.45;;;32.30;42.80;;;;;;5082820;28;20043;-67
2022/05/21 07:30:16;;;;;;;5.70;3.97;;;32.60;42.00;;;;;;5084323;28;20097;-74
2022/05/21 07:32:42;;;;;;;9.57;4.78;;;32.90;41.40;;;;;;5078206;28;20477;-73
2022/05/21 07:35:12;;;;;;;10.80;4.68;;;33.20;41.10;;;;;;5082653;28;20099;-70
2022/05/21 07:37:56;;;;;;;11.10;4.50;;;34.60;39.40;;;;;;5083095;28;20453;-74
2022/05/21 07:40:24;;;;;;;6.90;4.43;;;35.20;37.70;;;;;;5057486;28;20672;-73
2022/05/21 07:42:51;;;;;;;9.68;4.30;;;35.30;37.60;;;;;;5082149;28;20044;-67
2022/05/21 07:45:19;;;;;;;17.35;4.65;;;36.10;37.70;;;;;;5084811;28;20060;-72
2022/05/21 07:47:46;;;;;;;13.52;4.95;;;36.60;35.80;;;;;;5065388;28;20028;-65
2022/05/21 07:50:14;;;;;;;18.00;4.50;;;36.90;34.80;;;;;;5076443;28;20039;-71
2022/05/21 07:52:41;;;;;;;13.20;4.68;;;37.00;34.40;;;;;;5088273;28;20036;-73
2022/05/21 07:55:09;;;;;;;7.20;4.72;;;37.20;34.10;;;;;;5060089;28;20511;-73
2022/05/21 07:57:35;;;;;;;16.15;5.05;;;38.10;33.20;;;;;;5089740;28;20044;-70
2022/05/21 08:00:01;;;;;;;8.18;4.45;;;39.80;31.90;;;;;;5068044;28;20110;-76
2022/05/21 08:02:27;;;;;;;13.88;4.57;;;41.20;30.00;;;;;;5080271;28;20032;-75
2022/05/21 08:04:52;;;;;;;5.57;4.30;;;41.60;29.40;;;;;;5075791;28;20036;-72
2022/05/21 08:07:18;;;;;;;7.35;4.32;;;42.50;28.90;;;;;;5077219;28;20042;-73
2022/05/21 08:09:44;;;;;;;7.07;4.00;;;43.60;28.20;;;;;;5077057;28;20025;-75
2022/05/21 08:12:14;;;;;;;10.40;3.83;;;44.20;27.50;;;;;;5074568;28;20062;-73
2022/05/21 08:14:41;;;;;;;10.82;3.22;;;44.50;26.80;;;;;;5091238;28;20095;-72
2022/05/21 08:17:09;;;;;;;9.02;3.97;;;44.30;26.60;;;;;;5090039;28;20099;-70
2022/05/21 08:19:36;;;;;;;7.30;4.00;;;43.20;27.20;;;;;;5062952;28;20040;-71
2022/05/21 08:27:33;;;;;;;9.32;3.90;;;40.90;28.70;;;;;;5080309;28;20512;-72
2022/05/21 08:29:59;;;;;;;8.80;3.35;;;42.00;27.60;;;;;;5082357;28;20031;-70
2022/05/21 08:32:25;;;;;;;7.22;3.00;;;41.80;27.20;;;;;;5079553;28;20032;-71
2022/05/21 08:34:52;;;;;;;9.35;3.80;;;40.10;28.50;;;;;;5080453;28;20043;-66
2022/05/21 08:37:20;;;;;;;7.18;5.18;;;39.60;29.30;;;;;;5077818;28;20036;-72
2022/05/21 08:39:46;;;;;;;7.25;4.38;;;40.40;29.00;;;;;;5088063;28;20124;-72
2022/05/21 08:42:29;;;;;;;8.65;3.15;;;40.70;28.90;;;;;;5090270;28;20020;-74
2022/05/21 08:45:08;;;;;;;8.48;2.95;;;41.40;28.10;;;;;;5083326;28;20036;-73
2022/05/21 08:47:37;;;;;;;8.65;3.38;;;41.70;27.50;;;;;;5063566;28;20028;-72
2022/05/21 08:50:09;;;;;;;7.47;3.92;;;41.10;28.10;;;;;;5084554;28;20496;-72
2022/05/21 08:52:59;;;;;;;5.90;3.30;;;42.00;27.20;;;;;;5080978;28;20020;-71
2022/05/21 08:55:44;;;;;;;5.93;3.20;;;42.00;27.10;;;;;;5081343;28;20027;-71
2022/05/21 08:58:35;;;;;;;7.53;2.70;;;42.20;26.30;;;;;;5082162;28;20012;-64
2022/05/21 09:01:01;;;;;;;8.82;2.97;;;40.70;27.00;;;;;;5079792;28;20020;-71
2022/05/21 09:03:28;;;;;;;6.47;3.42;;;38.50;28.70;;;;;;5082582;28;20465;-70
2022/05/21 09:06:06;;;;;;;6.00;2.97;;;37.10;29.90;;;;;;5062374;28;20024;-72
2022/05/21 09:08:50;;;;;;;5.72;2.63;;;36.10;31.30;;;;;;5062314;28;20055;-72
2022/05/21 09:11:21;;;;;;;6.82;3.00;;;35.80;31.50;;;;;;5082635;28;20028;-71
2022/05/21 09:14:21;;;;;;;9.07;3.22;;;34.80;32.30;;;;;;5078524;28;20032;-69
2022/05/21 09:16:56;;;;;;;6.47;3.35;;;33.60;34.20;;;;;;5079447;28;20021;-74
2022/05/21 09:19:27;;;;;;;7.53;2.70;;;32.70;35.70;;;;;;5077238;28;20020;-71
2022/05/21 09:22:02;;;;;;;7.38;2.70;;;32.20;36.10;;;;;;5075367;28;20462;-62
2022/05/21 09:24:49;;;;;;;11.38;2.88;;;32.00;36.50;;;;;;5083337;28;20055;-73
2022/05/21 09:27:32;;;;;;;11.43;3.70;;;31.50;36.90;;;;;;5081741;28;20420;-70
2022/05/21 09:30:13;;;;;;;6.13;2.55;;;31.30;37.10;;;;;;5067242;28;20024;-74
2022/05/21 09:32:40;;;;;;;9.85;2.40;;;31.10;36.30;;;;;;5084875;28;20437;-71
2022/05/21 09:35:18;;;;;;;6.20;2.40;;;30.90;35.80;;;;;;5062998;28;20024;-69
2022/05/21 09:37:44;;;;;;;3.20;1.77;;;30.50;35.40;;;;;;5068121;28;20553;-72
2022/05/21 09:40:20;;;;;;;5.32;2.50;;;30.30;35.60;;;;;;5082236;28;20029;-72
2022/05/21 09:45:33;;;;;;;9.43;2.65;;;30.30;35.50;;;;;;5083414;28;20063;-70
2022/05/21 09:48:05;;;;;;;5.38;2.55;;;30.20;36.10;;;;;;5081077;28;20061;-72
2022/05/21 09:51:19;;;;;;;6.68;2.53;;;29.80;37.20;;;;;;5071974;28;20024;-72
2022/05/21 09:53:45;;;;;;;7.57;3.10;;;29.60;38.00;;;;;;4980191;28;20034;-72
2022/05/21 09:56:22;;;;;;;9.68;3.10;;;29.70;38.10;;;;;;5051720;28;20032;-70
2022/05/21 09:58:51;;;;;;;7.00;2.50;;;29.60;37.60;;;;;;5081644;28;20081;-73
2022/05/21 10:01:38;;;;;;;5.93;3.38;;;29.40;37.50;;;;;;5061219;28;20126;-72
2022/05/21 10:04:27;;;;;;;7.95;3.28;;;29.30;38.50;;;;;;5081748;28;20372;-66
2022/05/21 10:13:06;;;;;;;9.57;2.63;;;28.80;37.70;;;;;;5070243;28;20385;-72
2022/05/21 10:15:40;;;;;;;5.50;2.55;;;28.80;37.50;;;;;;5064393;28;20016;-73
2022/05/21 10:18:37;;;;;;;7.45;2.92;;;28.70;37.10;;;;;;5059487;28;20028;-65
2022/05/21 10:21:25;;;;;;;6.97;3.00;;;28.50;37.60;;;;;;5061375;28;20173;-74
2022/05/21 10:24:18;;;;;;;5.18;2.40;;;28.40;38.00;;;;;;5060246;28;20165;-72
2022/05/21 10:27:12;;;;;;;7.20;2.85;;;28.50;38.20;;;;;;5069833;28;20051;-74
2022/05/21 10:30:03;;;;;;;4.93;2.92;;;28.60;38.10;;;;;;5066132;28;20027;-74
2022/05/21 10:33:02;;;;;;;7.55;2.80;;;28.80;37.50;;;;;;5062086;28;20039;-76
2022/05/21 10:35:31;;;;;;;8.65;2.97;;;28.80;37.40;;;;;;5085846;28;20035;-72
2022/05/21 10:38:07;;;;;;;4.63;2.63;;;28.80;37.40;;;;;;5077798;28;20054;-65
2022/05/21 10:40:52;;;;;;;3.60;2.50;;;28.80;36.60;;;;;;5076536;28;20024;-73
2022/05/21 10:43:48;;;;;;;5.88;3.38;;;28.70;37.00;;;;;;5072315;28;20209;-69
2022/05/21 10:46:26;;;;;;;6.05;2.55;;;28.40;37.50;;;;;;5072797;28;20528;-74
2022/05/21 10:49:11;;;;;;;8.02;2.38;;;28.40;37.60;;;;;;5067637;28;20028;-68
2022/05/21 10:51:50;;;;;;;3.90;2.25;;;28.60;37.80;;;;;;5085894;28;20051;-69
2022/05/21 10:54:40;;;;;;;5.68;2.40;;;28.70;37.70;;;;;;5077866;28;20021;-75
2022/05/21 10:57:33;;;;;;;5.43;2.90;;;28.90;37.20;;;;;;5078638;28;20031;-63
2022/05/21 11:00:23;;;;;;;8.02;3.22;;;29.10;37.50;;;;;;5086836;28;20024;-69
2022/05/21 11:03:11;;;;;;;7.68;2.63;;;29.10;37.30;;;;;;5087240;28;20051;-70
2022/05/21 11:06:04;;;;;;;4.22;2.50;;;29.20;37.10;;;;;;5079068;28;20107;-72
2022/05/21 11:09:04;;;;;;;7.18;2.70;;;29.10;36.30;;;;;;5085533;28;20028;-72
2022/05/21 11:11:30;;;;;;;8.10;3.00;;;28.90;36.60;;;;;;5090392;28;20024;-72
2022/05/21 11:14:21;;;;;;;7.40;2.60;;;28.90;36.70;;;;;;5066614;28;20035;-68
2022/05/21 11:16:56;;;;;;;9.68;2.90;;;28.70;36.80;;;;;;5086905;28;20039;-73
2022/05/21 11:19:30;;;;;;;6.85;2.47;;;28.70;36.60;;;;;;5068204;28;20021;-72
2022/05/21 11:22:02;;;;;;;8.27;2.50;;;28.70;36.00;;;;;;5084778;28;20078;-73
2022/05/21 11:24:51;;;;;;;9.43;2.58;;;28.60;36.00;;;;;;5090774;28;20048;-62
2022/05/21 11:27:29;;;;;;;6.53;2.35;;;28.60;35.40;;;;;;5088888;28;20122;-62
2022/05/21 11:30:13;;;;;;;10.07;2.42;;;28.60;35.20;;;;;;5076215;28;20027;-67
2022/05/21 11:38:43;;;;;;;5.13;2.40;;;28.50;35.40;;;;;;5084850;28;20081;-65
2022/05/21 11:41:29;;;;;;;6.80;2.60;;;28.40;35.10;;;;;;5085371;28;20450;-65
2022/05/21 11:47:05;;;;;;;7.65;2.40;;;28.60;34.80;;;;;;5085049;28;20524;-65
2022/05/21 11:50:07;;;;;;;6.60;2.10;;;28.60;34.90;;;;;;5083499;28;20120;-65
2022/05/21 11:52:35;;;;;;;4.47;2.10;;;28.70;34.30;;;;;;5081733;28;20028;-65
2022/05/21 11:55:13;;;;;;;7.93;2.60;;;28.80;34.40;;;;;;5085525;28;20027;-65
2022/05/21 11:57:42;;;;;;;6.25;2.25;;;28.80;34.80;;;;;;5085730;28;20027;-66
2022/05/21 12:00:11;;;;;;;6.88;2.15;;;28.80;34.50;;;;;;5079851;28;20020;-66
2022/05/21 12:03:00;;;;;;;8.88;2.13;;;28.80;34.50;;;;;;5081126;28;20051;-65
2022/05/21 12:05:35;;;;;;;7.82;2.15;;;28.90;34.80;;;;;;5081267;28;20021;-68
2022/05/21 12:08:23;;;;;;;11.35;2.42;;;28.80;34.50;;;;;;5079919;28;20016;-63
2022/05/21 12:10:56;;;;;;;8.90;2.15;;;28.70;34.40;;;;;;5063902;28;20476;-65
2022/05/21 12:13:46;;;;;;;5.45;2.17;;;28.70;34.40;;;;;;5080324;28;20125;-64
2022/05/21 12:16:20;;;;;;;9.77;3.40;;;28.80;34.50;;;;;;5063997;28;20024;-64
2022/05/21 12:18:54;;;;;;;3.13;1.90;;;29.00;33.70;;;;;;5068247;28;20353;-65
2022/05/21 12:21:29;;;;;;;4.43;2.20;;;29.10;33.00;;;;;;5079005;28;20025;-66
2022/05/21 12:23:55;;;;;;;5.38;1.73;;;29.20;33.30;;;;;;5082744;28;20032;-65
2022/05/21 12:26:24;;;;;;;4.70;2.53;;;29.30;33.10;;;;;;5066166;28;20016;-65
2022/05/21 12:29:22;;;;;;;9.65;2.38;;;29.20;33.00;;;;;;5081850;28;20020;-64
2022/05/21 12:31:51;;;;;;;8.65;2.67;;;29.10;33.10;;;;;;5079636;28;20564;-66
2022/05/21 12:34:21;;;;;;;8.52;2.33;;;29.00;32.90;;;;;;5077953;28;20048;-65
2022/05/21 12:37:10;;;;;;;4.40;2.22;;;29.20;33.40;;;;;;5079824;28;20028;-65
2022/05/21 12:40:07;;;;;;;6.22;2.22;;;29.20;33.30;;;;;;5064854;28;20107;-65
2022/05/21 12:42:57;;;;;;;6.03;2.00;;;29.20;32.90;;;;;;5083971;28;20469;-65
2022/05/21 12:45:37;;;;;;;6.95;2.20;;;29.40;32.10;;;;;;5082348;28;20048;-65
2022/05/21 12:48:31;;;;;;;5.88;1.92;;;29.30;31.60;;;;;;5080230;28;20042;-64
2022/05/21 12:51:04;;;;;;;4.45;1.73;;;29.20;31.80;;;;;;5083714;28;20059;-64
2022/05/21 12:53:42;;;;;;;5.25;2.15;;;29.20;32.00;;;;;;5080007;28;20027;-66
2022/05/21 12:56:29;;;;;;;4.95;1.85;;;29.30;32.10;;;;;;5081760;28;20020;-64
2022/05/21 12:59:07;;;;;;;6.90;1.95;;;29.30;32.10;;;;;;5059018;28;20017;-66
2022/05/21 13:01:34;;;;;;;7.85;2.05;;;29.30;31.50;;;;;;5062126;28;20385;-66
2022/05/21 13:04:01;;;;;;;6.57;2.15;;;29.20;31.50;;;;;;5064599;28;20042;-62
2022/05/21 13:06:31;;;;;;;10.30;2.40;;;29.10;31.80;;;;;;5077045;28;20103;-65
2022/05/21 13:09:00;;;;;;;7.95;2.13;;;29.10;32.10;;;;;;5065281;28;20361;-65
2022/05/21 13:11:36;;;;;;;9.52;2.20;;;29.20;31.90;;;;;;5058068;28;20070;-64
2022/05/21 13:14:10;;;;;;;4.75;1.95;;;29.20;31.70;;;;;;5053918;28;20059;-66
2022/05/21 13:16:45;;;;;;;5.43;1.90;;;29.40;32.00;;;;;;5080532;28;20465;-65
2022/05/21 13:19:28;;;;;;;4.63;2.00;;;29.50;32.20;;;;;;5060897;28;20024;-65
2022/05/21 13:22:03;;;;;;;8.17;2.30;;;29.40;31.80;;;;;;5062461;28;20028;-63
2022/05/21 13:25:08;;;;;;;5.15;1.60;;;29.60;32.00;;;;;;5079864;28;20365;-64
2022/05/21 13:27:49;;;;;;;3.47;1.83;;;29.50;30.80;;;;;;5026582;28;20044;-64
2022/05/21 13:30:36;;;;;;;5.32;1.80;;;29.40;30.70;;;;;;5070014;28;20024;-65
2022/05/21 13:33:13;;;;;;;3.80;1.70;;;29.40;31.20;;;;;;5083949;28;20104;-62
2022/05/21 13:35:41;;;;;;;3.92;1.80;;;29.20;30.60;;;;;;5084731;28;20536;-64
2022/05/21 13:38:12;;;;;;;7.75;1.90;;;29.10;30.80;;;;;;5079484;28;20039;-63
2022/05/21 13:40:50;;;;;;;4.93;1.80;;;29.20;30.70;;;;;;5083698;28;20017;-65
2022/05/21 13:43:17;;;;;;;4.85;1.63;;;29.10;30.40;;;;;;5066762;28;20485;-63
2022/05/21 13:46:03;;;;;;;5.53;2.15;;;29.20;30.50;;;;;;5082928;28;20031;-63
2022/05/21 13:48:35;;;;;;;6.20;2.33;;;29.30;30.00;;;;;;5082387;28;20035;-63
2022/05/21 13:51:01;;;;;;;3.67;1.70;;;29.40;30.40;;;;;;5088293;28;20127;-65
2022/05/21 13:53:29;;;;;;;9.88;1.88;;;29.50;30.00;;;;;;5074984;28;20031;-63